createdAt,value
2024-03-02T00:00:23.677Z,13.60
2024-03-02T00:03:34.324Z,12.77
2024-03-02T00:06:39.080Z,13.23
2024-03-02T00:09:44.016Z,13.43
2024-03-02T00:12:49.901Z,13.10
2024-03-02T00:15:59.458Z,13.65
2024-03-02T00:19:30.103Z,12.57
2024-03-02T00:23:00.584Z,13.73
2024-03-02T00:26:12.341Z,13.40
2024-03-02T00:33:11.519Z,12.80
2024-03-02T00:36:40.475Z,13.38
2024-03-02T00:40:12.794Z,13.13
2024-03-02T00:43:45.754Z,13.65
2024-03-02T00:47:15.363Z,13.27
2024-03-02T00:50:30.476Z,13.25
2024-03-02T00:53:35.229Z,12.32
2024-03-02T00:56:38.625Z,13.68
2024-03-02T00:59:42.280Z,14.25
2024-03-02T01:02:47.629Z,12.65
2024-03-02T01:05:53.902Z,13.90
2024-03-02T01:08:57.711Z,13.88
2024-03-02T01:12:01.265Z,14.30
2024-03-02T01:15:09.206Z,14.05
2024-03-02T01:18:12.770Z,13.55
2024-03-02T01:21:18.083Z,13.55
2024-03-02T01:24:21.973Z,14.27
2024-03-02T01:27:26.082Z,14.02
2024-03-02T01:30:34.014Z,14.32
2024-03-02T01:33:39.980Z,13.70
2024-03-02T01:36:44.999Z,14.07
2024-03-02T01:39:48.793Z,13.20
2024-03-02T01:42:58.826Z,13.52
2024-03-02T01:46:02.548Z,13.73
2024-03-02T01:49:06.950Z,14.07
2024-03-02T01:52:12.479Z,13.77
2024-03-02T01:55:16.300Z,12.73
2024-03-02T01:58:19.886Z,13.48
2024-03-02T02:01:24.932Z,13.40
2024-03-02T02:04:37.644Z,13.63
2024-03-02T02:07:43.197Z,14.02
2024-03-02T02:10:47.034Z,13.80
2024-03-02T02:13:51.025Z,14.80
2024-03-02T02:16:57.974Z,12.55
2024-03-02T02:20:01.872Z,13.27
2024-03-02T02:23:10.753Z,14.07
2024-03-02T02:26:15.314Z,14.02
2024-03-02T02:29:19.096Z,13.38
2024-03-02T02:32:22.760Z,13.45
2024-03-02T02:35:26.752Z,14.55
2024-03-02T02:38:32.251Z,13.60
2024-03-02T02:41:36.758Z,14.13
2024-03-02T02:44:40.739Z,13.63
2024-03-02T02:47:44.858Z,13.65
2024-03-02T02:50:48.508Z,13.75
2024-03-02T02:54:08.084Z,13.68
2024-03-02T02:57:11.616Z,13.88
2024-03-02T03:00:18.368Z,13.85
2024-03-02T03:03:23.626Z,13.50
2024-03-02T03:06:31.804Z,13.07
2024-03-02T03:09:40.982Z,14.32
2024-03-02T03:12:48.100Z,13.40
2024-03-02T03:15:52.088Z,13.95
2024-03-02T03:18:56.786Z,14.55
2024-03-02T03:22:00.452Z,13.35
2024-03-02T03:25:05.818Z,14.90
2024-03-02T03:28:11.140Z,13.23
2024-03-02T03:31:17.481Z,13.10
2024-03-02T03:34:21.225Z,13.50
2024-03-02T03:37:25.252Z,13.95
2024-03-02T03:40:31.846Z,13.82
2024-03-02T03:43:35.405Z,13.05
2024-03-02T03:46:39.530Z,13.82
2024-03-02T03:49:43.254Z,14.07
2024-03-02T03:52:48.709Z,14.57
2024-03-02T03:55:54.025Z,14.40
2024-03-02T03:58:57.453Z,14.07
2024-03-02T04:02:01.355Z,14.70
2024-03-02T04:05:09.729Z,13.35
2024-03-02T04:08:13.510Z,13.45
2024-03-02T04:11:19.246Z,14.25
2024-03-02T04:14:24.045Z,13.57
2024-03-02T04:17:29.118Z,13.95
2024-03-02T04:20:33.382Z,14.98
2024-03-02T04:23:38.631Z,14.15
2024-03-02T04:26:45.916Z,13.35
2024-03-02T04:29:51.581Z,14.52
2024-03-02T04:32:55.565Z,14.07
2024-03-02T04:35:59.144Z,13.25
2024-03-02T04:39:03.771Z,14.65
2024-03-02T04:42:09.133Z,14.07
2024-03-02T04:45:14.963Z,12.82
2024-03-02T04:48:18.981Z,14.25
2024-03-02T04:51:22.971Z,13.43
2024-03-02T04:54:27.494Z,13.60
2024-03-02T04:57:32.575Z,13.05
2024-03-02T05:00:36.343Z,13.52
2024-03-02T05:03:43.600Z,14.32
2024-03-02T05:06:55.387Z,14.63
2024-03-02T05:10:00.070Z,14.73
2024-03-02T05:13:05.689Z,15.27
2024-03-02T05:16:09.257Z,15.23
2024-03-02T05:19:12.737Z,14.30
2024-03-02T05:22:20.600Z,13.55
2024-03-02T05:25:25.065Z,14.60
2024-03-02T05:28:30.229Z,14.93
2024-03-02T05:31:34.890Z,14.40
2024-03-02T05:34:38.543Z,14.30
2024-03-02T05:37:43.149Z,15.60
2024-03-02T05:40:46.871Z,15.38
2024-03-02T05:43:52.779Z,13.80
2024-03-02T05:46:56.503Z,13.55
2024-03-02T05:50:00.055Z,15.85
2024-03-02T05:53:03.703Z,14.63
2024-03-02T05:56:10.487Z,13.95
2024-03-02T05:59:17.370Z,14.82
2024-03-02T06:02:21.078Z,14.65
2024-03-02T06:05:24.658Z,14.45
2024-03-02T06:08:31.232Z,15.13
2024-03-02T06:11:36.853Z,15.45
2024-03-02T06:14:58.914Z,14.43
2024-03-02T06:18:03.375Z,15.15
2024-03-02T06:21:08.479Z,14.90
2024-03-02T06:24:16.838Z,15.18
2024-03-02T06:27:23.775Z,14.65
2024-03-02T06:30:29.056Z,15.25
2024-03-02T06:33:33.590Z,14.68
2024-03-02T06:36:38.204Z,13.90
2024-03-02T06:39:42.202Z,14.40
2024-03-02T06:42:45.994Z,14.30
2024-03-02T06:45:51.380Z,15.43
2024-03-02T06:48:55.124Z,16.63
2024-03-02T06:52:01.500Z,15.60
2024-03-02T06:55:06.736Z,15.88
2024-03-02T06:58:10.846Z,15.73
2024-03-02T07:01:18.475Z,15.80
2024-03-02T07:04:24.042Z,15.40
2024-03-02T07:07:27.651Z,13.80
2024-03-02T07:10:31.332Z,14.50
2024-03-02T07:13:35.394Z,14.73
2024-03-02T07:16:41.775Z,16.20
2024-03-02T07:19:45.779Z,15.43
2024-03-02T07:22:49.657Z,15.13
2024-03-02T07:29:03.532Z,15.32
2024-03-02T07:32:09.852Z,15.10
2024-03-02T07:35:15.668Z,14.93
2024-03-02T07:38:19.256Z,15.85
2024-03-02T07:41:25.227Z,15.50
2024-03-02T07:44:29.354Z,15.57
2024-03-02T07:47:34.574Z,15.18
2024-03-02T07:50:40.174Z,14.30
2024-03-02T07:53:45.720Z,13.85
2024-03-02T08:01:25.498Z,14.48
2024-03-02T08:04:31.468Z,14.43
2024-03-02T08:07:35.236Z,14.55
2024-03-02T08:10:38.719Z,14.27
2024-03-02T08:13:42.444Z,14.23
2024-03-02T08:16:47.320Z,14.63
2024-03-02T08:19:52.821Z,13.93
2024-03-02T08:22:57.568Z,12.48
2024-03-02T08:26:01.242Z,14.88
2024-03-02T08:29:05.338Z,14.05
2024-03-02T08:32:09.376Z,13.80
2024-03-02T08:35:14.494Z,13.43
2024-03-02T08:38:21.467Z,14.30
2024-03-02T08:41:26.116Z,13.43
2024-03-02T08:44:29.818Z,13.88
2024-03-02T08:47:33.774Z,13.82
2024-03-02T08:50:39.209Z,14.05
2024-03-02T08:53:43.874Z,14.65
2024-03-02T08:56:47.846Z,13.60
2024-03-02T08:59:51.673Z,13.18
2024-03-02T09:02:55.177Z,13.27
2024-03-02T09:06:00.393Z,13.80
2024-03-02T09:09:05.626Z,13.65
2024-03-02T09:12:10.217Z,13.05
2024-03-02T09:15:17.262Z,13.75
2024-03-02T09:18:22.448Z,12.05
2024-03-02T09:21:27.676Z,12.38
2024-03-02T09:24:32.566Z,12.45
2024-03-02T09:27:36.067Z,12.65
2024-03-02T09:30:39.949Z,13.25
2024-03-02T09:33:45.530Z,12.77
2024-03-02T09:36:50.742Z,13.48
2024-03-02T09:39:54.580Z,11.93
2024-03-02T09:42:58.533Z,12.02
2024-03-02T09:46:02.592Z,12.63
2024-03-02T09:49:06.425Z,12.57
2024-03-02T09:52:11.681Z,11.98
2024-03-02T09:55:16.717Z,12.95
2024-03-02T09:58:21.883Z,12.63
2024-03-02T10:01:33.316Z,12.30
2024-03-02T10:04:48.250Z,11.52
2024-03-02T10:08:06.143Z,12.27
2024-03-02T10:11:13.293Z,12.75
2024-03-02T10:14:17.261Z,10.95
2024-03-02T10:17:21.655Z,11.38
2024-03-02T10:20:25.742Z,11.25
2024-03-02T10:23:32.046Z,11.20
2024-03-02T10:26:37.507Z,11.02
2024-03-02T10:29:42.091Z,11.18
2024-03-02T10:32:46.260Z,10.95
2024-03-02T10:35:53.092Z,9.30
2024-03-02T10:39:02.245Z,9.05
2024-03-02T10:42:10.050Z,9.70
2024-03-02T10:45:15.515Z,9.18
2024-03-02T10:48:26.094Z,9.00
2024-03-02T10:51:34.106Z,8.82
2024-03-02T10:54:42.267Z,9.60
2024-03-02T10:57:53.053Z,9.25
2024-03-02T11:00:57.611Z,9.30
2024-03-02T11:04:02.041Z,9.40
2024-03-02T11:07:07.127Z,9.75
2024-03-02T11:10:13.570Z,10.55
2024-03-02T11:13:20.472Z,9.38
2024-03-02T11:16:33.875Z,9.55
2024-03-02T11:19:37.929Z,8.43
2024-03-02T11:22:42.512Z,8.52
2024-03-02T11:25:48.672Z,8.70
2024-03-02T11:28:52.432Z,8.88
2024-03-02T11:32:02.719Z,9.70
2024-03-02T11:35:08.444Z,8.63
2024-03-02T11:38:14.030Z,8.18
2024-03-02T11:41:19.468Z,9.05
2024-03-02T11:44:23.333Z,8.32
2024-03-02T11:47:27.299Z,8.45
2024-03-02T11:50:36.560Z,8.15
2024-03-02T11:53:41.944Z,7.82
2024-03-02T11:56:47.212Z,7.20
2024-03-02T11:59:52.449Z,7.38
2024-03-02T12:03:08.155Z,7.15
2024-03-02T12:06:12.065Z,7.90
2024-03-02T12:09:16.085Z,8.05
2024-03-02T12:12:25.813Z,7.22
2024-03-02T12:15:38.372Z,7.43
2024-03-02T12:18:45.076Z,6.47
2024-03-02T12:21:49.184Z,6.90
2024-03-02T12:24:53.640Z,6.53
2024-03-02T12:28:00.125Z,7.45
2024-03-02T12:31:04.831Z,6.80
2024-03-02T12:34:08.656Z,7.07
2024-03-02T12:37:15.160Z,7.20
2024-03-02T12:40:19.714Z,6.70
2024-03-02T12:43:25.121Z,7.05
2024-03-02T12:46:29.713Z,7.78
2024-03-02T12:49:36.067Z,6.75
2024-03-02T12:52:40.582Z,7.25
2024-03-02T12:55:45.162Z,6.85
2024-03-02T12:58:50.430Z,7.30
2024-03-02T13:01:55.470Z,7.30
2024-03-02T13:05:00.922Z,6.95
2024-03-02T13:08:05.737Z,6.72
2024-03-02T13:11:10.775Z,7.05
2024-03-02T13:14:18.531Z,6.55
2024-03-02T13:17:27.721Z,6.75
2024-03-02T13:20:33.910Z,6.25
2024-03-02T13:23:39.665Z,6.15
2024-03-02T13:26:44.647Z,5.43
2024-03-02T13:29:49.798Z,5.53
2024-03-02T13:32:55.358Z,6.40
2024-03-02T13:35:59.205Z,4.60
2024-03-02T13:39:03.851Z,5.80
2024-03-02T13:42:10.732Z,5.70
2024-03-02T13:45:15.875Z,4.53
2024-03-02T13:48:19.574Z,6.15
2024-03-02T13:51:23.298Z,5.70
2024-03-02T13:54:31.925Z,5.50
2024-03-02T13:57:37.556Z,5.68
2024-03-02T14:00:45.223Z,5.25
2024-03-02T14:03:49.103Z,6.10
2024-03-02T14:06:55.338Z,5.93
2024-03-02T14:09:59.651Z,5.68
2024-03-02T14:13:03.322Z,5.70
2024-03-02T14:16:10.066Z,6.10
2024-03-02T14:19:15.752Z,5.82
2024-03-02T14:22:19.480Z,6.18
2024-03-02T14:25:23.082Z,6.70
2024-03-02T14:28:43.917Z,5.55
2024-03-02T14:31:53.536Z,5.80
2024-03-02T14:35:01.959Z,5.95
2024-03-02T14:38:06.321Z,6.20
2024-03-02T14:41:10.492Z,6.07
2024-03-02T14:44:14.133Z,6.22
2024-03-02T14:47:23.059Z,5.97
2024-03-02T14:50:26.696Z,5.75
2024-03-02T14:53:31.233Z,5.18
2024-03-02T14:56:35.096Z,6.47
2024-03-02T14:59:39.150Z,6.38
2024-03-02T15:02:46.195Z,5.63
2024-03-02T15:05:53.494Z,5.88
2024-03-02T15:08:57.354Z,5.57
2024-03-02T15:12:02.858Z,5.43
2024-03-02T15:15:08.143Z,5.95
2024-03-02T15:18:13.408Z,6.10
2024-03-02T15:21:21.009Z,5.88
2024-03-02T15:24:26.782Z,5.35
2024-03-02T15:27:30.724Z,6.03
2024-03-02T15:30:35.458Z,5.30
2024-03-02T15:33:40.812Z,6.00
2024-03-02T15:36:48.326Z,5.53
2024-03-02T15:39:56.145Z,5.28
2024-03-02T15:43:00.141Z,6.60
2024-03-02T15:46:05.726Z,5.50
2024-03-02T15:49:21.729Z,5.55
2024-03-02T15:52:28.608Z,6.05
2024-03-02T15:55:32.087Z,6.53
2024-03-02T15:58:36.910Z,6.18
2024-03-02T16:01:44.858Z,6.72
2024-03-02T16:04:50.049Z,6.22
2024-03-02T16:07:54.497Z,6.30
2024-03-02T16:11:01.005Z,6.65
2024-03-02T16:14:05.968Z,6.68
2024-03-02T16:17:10.699Z,5.97
2024-03-02T16:20:22.900Z,7.43
2024-03-02T16:23:26.676Z,7.55
2024-03-02T16:26:34.522Z,7.00
2024-03-02T16:29:38.602Z,7.35
2024-03-02T16:32:44.717Z,7.93
2024-03-02T16:35:53.401Z,7.93
2024-03-02T16:38:57.816Z,7.60
2024-03-02T16:42:03.919Z,7.28
2024-03-02T16:45:07.896Z,8.23
2024-03-02T16:48:11.432Z,7.82
2024-03-02T16:51:17.959Z,7.25
2024-03-02T16:54:21.489Z,6.95
2024-03-02T16:57:26.391Z,9.32
2024-03-02T17:00:30.509Z,8.25
2024-03-02T17:03:33.985Z,8.05
2024-03-02T17:06:44.958Z,8.55
2024-03-02T17:09:48.806Z,9.00
2024-03-02T17:12:52.691Z,8.75
2024-03-02T17:15:58.420Z,9.48
2024-03-02T17:19:02.934Z,8.65
2024-03-02T17:22:08.790Z,9.48
2024-03-02T17:25:12.606Z,9.35
2024-03-02T17:28:29.545Z,9.43
2024-03-02T17:31:36.524Z,9.27
2024-03-02T17:34:42.246Z,8.82
2024-03-02T17:37:47.804Z,9.75
2024-03-02T17:40:51.370Z,9.38
2024-03-02T17:43:54.930Z,9.23
2024-03-02T17:46:59.685Z,9.93
2024-03-02T17:50:08.492Z,9.93
2024-03-02T17:53:13.545Z,10.10
2024-03-02T17:56:18.395Z,9.75
2024-03-02T17:59:21.951Z,9.38
2024-03-02T18:02:27.342Z,9.27
2024-03-02T18:05:30.779Z,10.70
2024-03-02T18:08:38.846Z,11.35
2024-03-02T18:12:08.465Z,10.27
2024-03-02T18:15:14.523Z,9.98
2024-03-02T18:18:19.159Z,10.93
2024-03-02T18:21:22.813Z,10.80
2024-03-02T18:24:29.884Z,10.73
2024-03-02T18:27:36.806Z,10.80
2024-03-02T18:30:42.286Z,11.73
2024-03-02T18:33:49.079Z,10.05
2024-03-02T18:36:54.987Z,10.63
2024-03-02T18:40:03.527Z,11.45
2024-03-02T18:43:10.025Z,11.57
2024-03-02T18:46:14.761Z,10.85
2024-03-02T18:49:19.697Z,10.80
2024-03-02T18:52:30.180Z,10.77
2024-03-02T18:55:35.637Z,10.48
2024-03-02T18:58:39.641Z,10.32
2024-03-02T19:01:45.453Z,10.60
2024-03-02T19:04:49.210Z,10.40
2024-03-02T19:07:52.965Z,9.85
2024-03-02T19:10:57.978Z,9.85
2024-03-02T19:14:01.653Z,9.85
2024-03-02T19:21:56.198Z,10.35
2024-03-02T19:25:10.007Z,10.73
2024-03-02T19:28:15.683Z,11.07
2024-03-02T19:31:19.761Z,12.18
2024-03-02T19:34:24.970Z,10.55
2024-03-02T19:37:29.577Z,11.65
2024-03-02T19:40:38.727Z,9.90
2024-03-02T19:43:44.702Z,9.65
2024-03-02T19:46:50.392Z,11.02
2024-03-02T19:49:55.214Z,7.47
2024-03-02T19:53:01.269Z,8.35
2024-03-02T19:56:05.977Z,8.20
2024-03-02T19:59:14.826Z,7.15
2024-03-02T20:02:24.119Z,7.28
2024-03-02T20:05:28.355Z,7.78
2024-03-02T20:08:32.704Z,7.78
2024-03-02T20:11:36.790Z,7.90
2024-03-02T20:14:47.277Z,7.50
2024-03-02T20:17:54.024Z,7.68
2024-03-02T20:21:07.235Z,8.07
2024-03-02T20:24:21.872Z,9.23
2024-03-02T20:27:29.191Z,8.70
2024-03-02T20:30:36.043Z,8.57
2024-03-02T20:33:40.887Z,8.30
2024-03-02T20:36:45.510Z,9.15
2024-03-02T20:39:50.494Z,9.05
2024-03-02T20:42:55.701Z,8.60
2024-03-02T20:46:07.474Z,8.60
2024-03-02T20:49:12.424Z,8.40
2024-03-02T20:52:16.896Z,8.43
2024-03-02T20:55:20.623Z,8.43
2024-03-02T20:58:24.473Z,8.32
2024-03-02T21:01:29.752Z,8.02
2024-03-02T21:04:34.777Z,9.20
2024-03-02T21:07:41.459Z,8.77
2024-03-02T21:10:47.749Z,8.70
2024-03-02T21:17:13.985Z,7.82
2024-03-02T21:20:19.339Z,8.98
2024-03-02T21:23:24.636Z,9.40
2024-03-02T21:26:28.952Z,8.50
2024-03-02T21:29:32.583Z,9.25
2024-03-02T21:32:43.032Z,8.95
2024-03-02T21:35:49.524Z,8.75
2024-03-02T21:38:53.635Z,8.68
2024-03-02T21:42:01.620Z,9.35
2024-03-02T21:45:09.926Z,9.18
2024-03-02T21:48:19.175Z,9.20
2024-03-02T21:51:22.926Z,8.73
2024-03-02T21:54:26.581Z,8.82
2024-03-02T21:57:30.709Z,9.75
2024-03-02T22:00:38.282Z,9.38
2024-03-02T22:03:49.385Z,9.35
2024-03-02T22:06:53.385Z,9.05
2024-03-02T22:10:01.180Z,8.70
2024-03-02T22:13:12.156Z,8.77
2024-03-02T22:16:16.794Z,10.05
2024-03-02T22:19:22.323Z,8.75
2024-03-02T22:22:29.289Z,8.90
2024-03-02T22:25:32.799Z,9.68
2024-03-02T22:28:37.195Z,9.10
2024-03-02T22:31:40.701Z,9.18
2024-03-02T22:34:46.286Z,9.32
2024-03-02T22:37:50.905Z,9.52
2024-03-02T22:40:55.136Z,9.88
2024-03-02T22:44:00.584Z,9.20
2024-03-02T22:47:04.376Z,9.88
2024-03-02T22:50:11.850Z,9.07
2024-03-02T22:53:21.330Z,10.13
2024-03-02T22:56:25.174Z,9.43
2024-03-02T22:59:28.955Z,9.77
2024-03-02T23:02:38.835Z,10.52
2024-03-02T23:05:45.959Z,10.13
2024-03-02T23:08:50.101Z,8.60
2024-03-02T23:11:53.805Z,10.48
2024-03-02T23:14:58.172Z,9.85
2024-03-02T23:18:02.056Z,9.63
2024-03-02T23:21:07.898Z,10.02
2024-03-02T23:24:16.072Z,9.18
2024-03-02T23:27:20.519Z,10.25
2024-03-02T23:30:31.266Z,9.40
2024-03-02T23:33:35.906Z,9.40
2024-03-02T23:36:43.654Z,9.82
2024-03-02T23:40:01.256Z,10.30
2024-03-02T23:43:05.978Z,9.48
2024-03-02T23:46:12.351Z,9.50
2024-03-02T23:49:19.179Z,10.63
2024-03-02T23:52:24.648Z,10.65
2024-03-02T23:55:39.637Z,10.02
2024-03-02T23:58:51.771Z,10.10
